• Join FlightAware (Why Join?)
  • Login
  • US Flag 
03:21AM EDT


 

Airport Tracker/Info


-or-


 

Live Flight TrackerFlight Track Log ✈ SWA2236 ✈ 11-Jul-2013 ✈ KABQ - KOAK

Flight Track Log - Related Links

Times and Time Zones

All times are in EDT time to prevent confusion due to time zone crossing. See the SWA2236 flight status page for this flight to view local times or setup timezone preferences in your user account.

Time Position Orientation Groundspeed Altitude Reporting Facility
EDT Latitude Longitude Course Direction KTS MPH feet Rate Location/Type
09:15AM 35.0667 -106.5575 58° Northeast 223 257 7,100  Level Albuquerque Center
09:15AM 35.0933 -106.5950 311° West 240 276 8,600 2,040 Climbing Albuquerque Center
09:17AM 35.1211 -106.7211 285° West 279 321 11,300 2,460 Climbing Albuquerque Center
09:18AM 35.1458 -106.8633 282° West 359 413 14,800 3,180 Climbing Albuquerque Center
09:19AM 35.1669 -106.9869 282° West 379 436 17,800 2,520 Climbing Albuquerque Center
09:20AM 35.1925 -107.1164 284° West 370 426 20,000 1,380 Climbing Albuquerque Center
09:21AM 35.2103 -107.2478 279° West 419 482 20,700 1,620 Climbing Albuquerque Center
09:22AM 35.2233 -107.3856 277° West 414 476 23,400 2,400 Climbing Albuquerque Center
09:23AM 35.2372 -107.5439 276° West 418 481 25,700 1,920 Climbing Albuquerque Center
09:24AM 35.2492 -107.6856 276° West 431 496 27,400 1,620 Climbing Albuquerque Center
09:25AM 35.2611 -107.8317 276° West 445 512 29,100 1,620 Climbing Albuquerque Center
09:26AM 35.2775 -108.0039 277° West 454 522 30,800 1,620 Climbing Albuquerque Center
09:27AM 35.2903 -108.1575 276° West 465 535 32,500 1,740 Climbing Albuquerque Center
09:28AM 35.3025 -108.3092 276° West 466 536 34,400 1,860 Climbing Albuquerque Center
09:29AM 35.3172 -108.4817 276° West 459 528 36,300 1,620 Climbing Albuquerque Center
09:30AM 35.3294 -108.6294 276° West 456 525 37,700 1,380 Climbing Albuquerque Center
09:31AM 35.3417 -108.7764 276° West 453 521 39,200 1,080 Climbing Albuquerque Center
09:32AM 35.3544 -108.9433 275° West 443 510 40,000 360 Climbing Albuquerque Center
09:33AM 35.3658 -109.0875 276° West 442 509 40,000  Level Albuquerque Center
09:34AM 35.3761 -109.2311 275° West 442 509 40,000  Level Albuquerque Center
09:35AM 35.3897 -109.4008 276° West 444 511 40,000  Level Albuquerque Center
09:36AM 35.3994 -109.5433 275° West 442 509 40,000  Level Albuquerque Center
09:37AM 35.4083 -109.6886 274° West 442 509 40,000  Level Albuquerque Center
09:38AM 35.4203 -109.8572 275° West 444 511 40,000  Level Albuquerque Center
09:39AM 35.4294 -110.0022 274° West 445 512 40,000  Level Albuquerque Center
09:40AM 35.4411 -110.1725 275° West 447 514 40,000  Level Albuquerque Center
09:41AM 35.4508 -110.3208 275° West 452 520 40,000  Level Albuquerque Center
09:42AM 35.4603 -110.4697 274° West 455 524 40,000  Level Albuquerque Center
09:43AM 35.4719 -110.6428 275° West 455 524 40,000  Level Albuquerque Center
09:44AM 35.4817 -110.7889 275° West 453 521 40,000  Level Albuquerque Center
09:45AM 35.4914 -110.9350 275° West 450 518 40,000  Level Albuquerque Center
09:46AM 35.5011 -111.1056 274° West 449 517 40,000  Level Albuquerque Center
09:47AM 35.5106 -111.2511 275° West 448 516 40,000  Level Albuquerque Center
09:48AM 35.5203 -111.4194 274° West 444 511 40,000  Level Albuquerque Center
09:49AM 35.5283 -111.5583 274° West 453 521 40,000  Level Albuquerque Center
09:50AM 35.5361 -111.7075 274° West 446 513 40,000  Level Albuquerque Center
09:51AM 35.5522 -111.8564 278° West 447 514 40,000  Level Albuquerque Center
09:52AM 35.5814 -112.0347 281° West 447 514 40,000  Level Los Angeles Center
09:53AM 35.6067 -112.1817 282° West 446 513 40,000  Level Albuquerque Center
09:54AM 35.6300 -112.3297 281° West 446 513 40,000  Level Albuquerque Center
09:55AM 35.6522 -112.4753 281° West 443 510 40,000  Level Albuquerque Center
09:56AM 35.6750 -112.6203 281° West 439 505 40,000  Level Albuquerque Center
09:57AM 35.6972 -112.7656 281° West 439 505 40,000  Level Albuquerque Center
09:58AM 35.7189 -112.9114 280° West 440 506 40,000  Level Albuquerque Center
10:00AM 35.7414 -113.0611 281° West 439 505 40,000  Level Los Angeles Center
10:01AM 35.7664 -113.2322 280° West 441 507 40,000  Level Los Angeles Center
10:02AM 35.7881 -113.3789 280° West 442 509 40,000  Level Los Angeles Center
10:03AM 35.8139 -113.5564 280° West 444 511 40,000  Level Los Angeles Center
10:04AM 35.8103 -113.6931 268° West 427 491 40,000  Level Los Angeles Center
10:05AM 35.8233 -113.8433 276° West 441 507 40,000  Level Los Angeles Center
10:06AM 35.8439 -113.9647 282° West 446 513 40,000  Level Los Angeles Center
10:07AM 35.8811 -114.1758 282° West 449 517 40,000  Level Los Angeles Center
10:08AM 35.9067 -114.3242 282° West 442 509 40,000  Level Los Angeles Center
10:09AM 35.9311 -114.4731 282° West 441 507 40,000  Level Los Angeles Center
10:10AM 35.9558 -114.6211 282° West 439 505 40,000  Level Los Angeles Center
10:11AM 35.9836 -114.7981 281° West 437 503 40,000  Level Los Angeles Center
10:12AM 36.0300 -114.9406 292° West 445 512 40,000  Level Los Angeles Center
10:13AM 36.0903 -115.0786 298° West 455 524 40,000  Level Los Angeles Center
10:14AM 36.1753 -115.2714 299° West 457 526 40,000  Level Los Angeles Center
10:15AM 36.2342 -115.4081 298° West 450 518 40,000  Level Los Angeles Center
10:16AM 36.2958 -115.5483 299° West 450 518 40,000  Level Los Angeles Center
10:17AM 36.3592 -115.7025 297° West 463 533 40,000  Level Los Angeles Center
10:19AM 36.4183 -115.8381 299° West 451 519 40,000  Level Los Angeles Center
10:20AM 36.4794 -115.9917 296° West 444 511 40,000  Level Los Angeles Center
10:21AM 36.5244 -116.1339 292° West 442 509 40,000  Level Los Angeles Center
10:22AM 36.5783 -116.3039 292° West 440 506 40,000  Level Los Angeles Center
10:23AM 36.6236 -116.4456 292° West 440 506 40,000  Level Los Angeles Center
10:24AM 36.6683 -116.5878 291° West 440 506 40,000  Level Los Angeles Center
10:25AM 36.7131 -116.7289 292° West 439 505 40,000  Level Los Angeles Center
10:26AM 36.7575 -116.8717 291° West 440 506 40,000  Level Los Angeles Center
10:27AM 36.8022 -117.0164 291° West 444 511 40,000  Level Los Angeles Center
10:28AM 36.8472 -117.1589 292° West 442 509 40,000  Level Los Angeles Center
10:29AM 36.8903 -117.3047 290° West 445 512 40,000  Level Oakland Center
10:30AM 36.9342 -117.4469 291° West 439 505 40,000  Level Oakland Center
10:31AM 36.9778 -117.5892 291° West 437 503 40,000  Level Oakland Center
10:32AM 37.0208 -117.7325 291° West 437 503 40,000  Level Oakland Center
10:33AM 37.0647 -117.8753 291° West 438 504 40,000  Level Oakland Center
10:34AM 37.1069 -118.0172 290° West 435 501 40,000  Level Oakland Center
10:35AM 37.1503 -118.1597 291° West 436 502 40,000  Level Oakland Center
10:36AM 37.1933 -118.3047 290° West 439 505 40,000  Level Oakland Center
10:37AM 37.2361 -118.4478 291° West 439 505 40,000  Level Oakland Center
10:38AM 37.2811 -118.6042 290° West 439 505 40,000 -60 Level Oakland Center
10:39AM 37.3239 -118.7489 290° West 443 510 39,900 -540 Descending Oakland Center
10:40AM 37.3653 -118.8906 290° West 437 503 38,900 -1,320 Descending Oakland Center
10:41AM 37.4072 -119.0392 290° West 446 513 37,300 -1,920 Descending Oakland Center
10:42AM 37.4575 -119.2131 290° West 445 512 35,000 -1,620 Descending Oakland Center
10:43AM 37.5008 -119.3631 290° West 452 520 34,000 -540 Descending Oakland Center
10:44AM 37.5453 -119.5183 290° West 455 524 34,000  Level Oakland Center
10:45AM 37.5881 -119.6686 290° West 455 524 34,000  Level Oakland Center
10:46AM 37.6300 -119.8167 290° West 452 520 34,000  Level Oakland Center
10:47AM 37.6725 -119.9689 289° West 456 525 34,000 -360 Level Oakland Center
10:48AM 37.7136 -120.1192 289° West 452 520 33,300 -1,680 Descending Oakland Center
10:49AM 37.7564 -120.2683 290° West 450 518 30,600 -2,520 Descending Oakland Center
10:50AM 37.7961 -120.4178 289° West 447 514 28,200 -2,400 Descending Oakland Center
10:51AM 37.8358 -120.5592 290° West 428 493 25,800 -1,680 Descending Oakland Center
10:52AM 37.8667 -120.7000 286° West 390 449 25,000 -1,140 Descending Northern Cal TRACON
10:53AM 37.8500 -120.8333 261° West 385 443 23,600 -1,740 Descending Northern Cal TRACON
10:54AM 37.8500 -120.9833 270° West 363 418 21,600 -2,100 Descending Northern Cal TRACON
10:55AM 37.8167 -121.0833 247° West 358 412 19,400 -2,280 Descending Northern Cal TRACON
10:56AM 37.8000 -121.2000 260° West 386 444 17,300 -2,400 Descending Northern Cal TRACON
10:57AM 37.7667 -121.3167 250° West 342 394 14,900 -2,520 Descending Northern Cal TRACON
10:58AM 37.7333 -121.4000 243° Southwest 329 379 12,600 -2,520 Descending Northern Cal TRACON
10:59AM 37.7000 -121.5167 250° West 324 373 10,200 -1,680 Descending Northern Cal TRACON
11:00AM 37.6667 -121.6000 243° Southwest 287 330 9,300 -1,200 Descending Northern Cal TRACON
11:01AM 37.6500 -121.7000 258° West 277 319 7,800 -1,380 Descending Northern Cal TRACON
11:02AM 37.6167 -121.7833 243° Southwest 265 305 6,700 -1,020 Descending Northern Cal TRACON
11:03AM 37.5833 -121.8500 238° Southwest 242 278 5,900 -960 Descending Northern Cal TRACON
11:04AM 37.5667 -121.9167 253° West 234 269 4,900 -1,020 Descending Northern Cal TRACON
11:05AM 37.5667 -122.0000 270° West 215 247 4,000 -780 Descending Northern Cal TRACON
11:06AM 37.5833 -122.0500 293° West 181 208 3,500 -840 Descending Northern Cal TRACON
11:07AM 37.6167 -122.1000 310° West 170 196 2,500 -900 Descending Northern Cal TRACON
11:08AM 37.6500 -122.1333 322° Northwest 131 151 1,700 -780 Descending Northern Cal TRACON
11:09AM 37.6667 -122.1667 302° West 130 150 1,000 -720 Descending Northern Cal TRACON
11:10AM 37.7000 -122.2000 322° Northwest 128 147 300 -720 Descending Northern Cal TRACON
11:13AM 37.7167 -122.2167 270° West  Level FlightAware Approximate